sensor_id;sensor_type;location;lat;lon;timestamp;P1;durP1;ratioP1;P2;durP2;ratioP2
21517;SDS011;61765;45.794;24.150;2023-01-15T00:01:15;37.67;;;22.38;;
21517;SDS011;61765;45.794;24.150;2023-01-15T00:09:22;41.90;;;23.23;;
21517;SDS011;61765;45.794;24.150;2023-01-15T00:17:30;41.40;;;23.85;;
21517;SDS011;61765;45.794;24.150;2023-01-15T00:25:36;41.85;;;23.30;;
21517;SDS011;61765;45.794;24.150;2023-01-15T00:33:56;42.97;;;24.98;;
21517;SDS011;61765;45.794;24.150;2023-01-15T00:42:01;40.90;;;23.85;;
21517;SDS011;61765;45.794;24.150;2023-01-15T00:50:10;45.55;;;26.25;;
21517;SDS011;61765;45.794;24.150;2023-01-15T00:58:17;49.58;;;26.33;;
21517;SDS011;61765;45.794;24.150;2023-01-15T01:06:26;38.97;;;22.60;;
21517;SDS011;61765;45.794;24.150;2023-01-15T01:14:33;37.60;;;21.05;;
21517;SDS011;61765;45.794;24.150;2023-01-15T01:22:41;39.25;;;23.15;;
21517;SDS011;61765;45.794;24.150;2023-01-15T01:30:46;37.97;;;23.42;;
21517;SDS011;61765;45.794;24.150;2023-01-15T01:38:54;28.65;;;17.10;;
21517;SDS011;61765;45.794;24.150;2023-01-15T01:47:00;33.20;;;20.02;;
21517;SDS011;61765;45.794;24.150;2023-01-15T01:55:12;34.17;;;20.38;;
21517;SDS011;61765;45.794;24.150;2023-01-15T02:03:21;34.78;;;20.15;;
21517;SDS011;61765;45.794;24.150;2023-01-15T02:11:32;39.63;;;23.25;;
21517;SDS011;61765;45.794;24.150;2023-01-15T02:19:40;34.60;;;20.63;;
21517;SDS011;61765;45.794;24.150;2023-01-15T02:27:59;36.15;;;21.60;;
21517;SDS011;61765;45.794;24.150;2023-01-15T02:36:09;40.10;;;23.40;;
21517;SDS011;61765;45.794;24.150;2023-01-15T02:44:24;43.17;;;24.17;;
21517;SDS011;61765;45.794;24.150;2023-01-15T02:52:34;48.65;;;25.73;;
21517;SDS011;61765;45.794;24.150;2023-01-15T03:00:47;42.25;;;25.05;;
21517;SDS011;61765;45.794;24.150;2023-01-15T03:09:11;44.67;;;26.33;;
21517;SDS011;61765;45.794;24.150;2023-01-15T03:17:21;41.58;;;25.98;;
21517;SDS011;61765;45.794;24.150;2023-01-15T03:25:29;40.63;;;22.58;;
21517;SDS011;61765;45.794;24.150;2023-01-15T03:33:42;41.78;;;24.85;;
21517;SDS011;61765;45.794;24.150;2023-01-15T03:41:55;46.40;;;26.63;;
21517;SDS011;61765;45.794;24.150;2023-01-15T03:50:13;41.05;;;25.58;;
21517;SDS011;61765;45.794;24.150;2023-01-15T03:58:24;51.90;;;29.08;;
21517;SDS011;61765;45.794;24.150;2023-01-15T04:06:37;49.53;;;27.02;;
21517;SDS011;61765;45.794;24.150;2023-01-15T04:14:45;47.80;;;28.30;;
21517;SDS011;61765;45.794;24.150;2023-01-15T04:22:56;41.63;;;24.83;;
21517;SDS011;61765;45.794;24.150;2023-01-15T04:31:02;41.70;;;24.70;;
21517;SDS011;61765;45.794;24.150;2023-01-15T04:39:10;28.92;;;17.67;;
21517;SDS011;61765;45.794;24.150;2023-01-15T04:47:16;17.27;;;10.70;;
21517;SDS011;61765;45.794;24.150;2023-01-15T04:55:23;20.88;;;12.70;;
21517;SDS011;61765;45.794;24.150;2023-01-15T05:03:29;13.50;;;8.77;;
21517;SDS011;61765;45.794;24.150;2023-01-15T05:11:38;10.48;;;7.03;;
21517;SDS011;61765;45.794;24.150;2023-01-15T05:19:43;10.43;;;6.57;;
21517;SDS011;61765;45.794;24.150;2023-01-15T05:27:52;9.13;;;6.00;;
21517;SDS011;61765;45.794;24.150;2023-01-15T05:35:59;8.77;;;6.07;;
21517;SDS011;61765;45.794;24.150;2023-01-15T05:44:08;8.52;;;5.75;;
21517;SDS011;61765;45.794;24.150;2023-01-15T05:52:15;18.75;;;12.60;;
21517;SDS011;61765;45.794;24.150;2023-01-15T06:00:23;27.55;;;16.08;;
21517;SDS011;61765;45.794;24.150;2023-01-15T06:08:31;24.90;;;15.55;;
21517;SDS011;61765;45.794;24.150;2023-01-15T06:16:39;30.35;;;18.20;;
21517;SDS011;61765;45.794;24.150;2023-01-15T06:24:44;31.83;;;18.95;;
21517;SDS011;61765;45.794;24.150;2023-01-15T06:32:52;31.85;;;17.75;;
21517;SDS011;61765;45.794;24.150;2023-01-15T06:40:58;32.60;;;18.70;;
21517;SDS011;61765;45.794;24.150;2023-01-15T06:49:06;30.58;;;18.45;;
21517;SDS011;61765;45.794;24.150;2023-01-15T06:57:11;28.13;;;17.45;;
21517;SDS011;61765;45.794;24.150;2023-01-15T07:05:19;24.92;;;14.57;;
21517;SDS011;61765;45.794;24.150;2023-01-15T07:13:25;27.17;;;15.38;;
21517;SDS011;61765;45.794;24.150;2023-01-15T07:21:33;25.42;;;15.00;;
21517;SDS011;61765;45.794;24.150;2023-01-15T07:29:38;19.33;;;11.63;;
21517;SDS011;61765;45.794;24.150;2023-01-15T07:37:46;14.82;;;10.13;;
21517;SDS011;61765;45.794;24.150;2023-01-15T07:45:54;13.95;;;9.60;;
21517;SDS011;61765;45.794;24.150;2023-01-15T07:54:15;18.40;;;9.93;;
21517;SDS011;61765;45.794;24.150;2023-01-15T08:02:20;9.88;;;6.75;;
21517;SDS011;61765;45.794;24.150;2023-01-15T08:10:28;11.93;;;7.18;;
21517;SDS011;61765;45.794;24.150;2023-01-15T08:18:54;16.60;;;8.02;;
21517;SDS011;61765;45.794;24.150;2023-01-15T08:27:02;12.32;;;6.82;;
21517;SDS011;61765;45.794;24.150;2023-01-15T08:35:08;9.23;;;6.30;;
21517;SDS011;61765;45.794;24.150;2023-01-15T08:43:16;9.02;;;5.60;;
21517;SDS011;61765;45.794;24.150;2023-01-15T08:51:22;13.48;;;6.93;;
21517;SDS011;61765;45.794;24.150;2023-01-15T08:59:30;12.43;;;6.95;;
21517;SDS011;61765;45.794;24.150;2023-01-15T09:07:36;8.60;;;5.85;;
21517;SDS011;61765;45.794;24.150;2023-01-15T09:15:44;9.20;;;5.20;;
21517;SDS011;61765;45.794;24.150;2023-01-15T09:23:49;6.85;;;5.07;;
21517;SDS011;61765;45.794;24.150;2023-01-15T09:31:57;9.30;;;6.80;;
21517;SDS011;61765;45.794;24.150;2023-01-15T09:40:10;9.80;;;6.75;;
21517;SDS011;61765;45.794;24.150;2023-01-15T09:48:32;10.52;;;6.50;;
21517;SDS011;61765;45.794;24.150;2023-01-15T09:56:47;9.63;;;7.20;;
21517;SDS011;61765;45.794;24.150;2023-01-15T10:04:56;8.95;;;6.93;;
21517;SDS011;61765;45.794;24.150;2023-01-15T10:13:11;10.10;;;6.85;;
21517;SDS011;61765;45.794;24.150;2023-01-15T10:21:30;9.00;;;6.90;;
21517;SDS011;61765;45.794;24.150;2023-01-15T10:29:47;8.55;;;6.38;;
21517;SDS011;61765;45.794;24.150;2023-01-15T10:38:00;8.63;;;5.53;;
21517;SDS011;61765;45.794;24.150;2023-01-15T10:46:14;8.82;;;5.43;;
21517;SDS011;61765;45.794;24.150;2023-01-15T10:54:28;12.20;;;6.03;;
21517;SDS011;61765;45.794;24.150;2023-01-15T11:02:39;9.95;;;6.20;;
21517;SDS011;61765;45.794;24.150;2023-01-15T11:10:56;10.93;;;6.97;;
21517;SDS011;61765;45.794;24.150;2023-01-15T11:19:03;11.50;;;6.60;;
21517;SDS011;61765;45.794;24.150;2023-01-15T11:27:39;11.07;;;6.33;;
21517;SDS011;61765;45.794;24.150;2023-01-15T11:35:48;9.43;;;6.28;;
21517;SDS011;61765;45.794;24.150;2023-01-15T11:44:01;13.75;;;7.68;;
21517;SDS011;61765;45.794;24.150;2023-01-15T11:52:20;12.10;;;7.70;;
21517;SDS011;61765;45.794;24.150;2023-01-15T12:00:31;14.32;;;8.50;;
21517;SDS011;61765;45.794;24.150;2023-01-15T12:08:45;13.23;;;8.40;;
21517;SDS011;61765;45.794;24.150;2023-01-15T12:16:57;16.00;;;9.27;;
21517;SDS011;61765;45.794;24.150;2023-01-15T12:25:15;14.00;;;8.40;;
21517;SDS011;61765;45.794;24.150;2023-01-15T12:33:45;15.98;;;9.00;;
21517;SDS011;61765;45.794;24.150;2023-01-15T12:41:56;15.25;;;8.38;;
21517;SDS011;61765;45.794;24.150;2023-01-15T12:50:31;15.73;;;10.05;;
21517;SDS011;61765;45.794;24.150;2023-01-15T12:58:46;14.68;;;9.00;;
21517;SDS011;61765;45.794;24.150;2023-01-15T13:06:59;12.88;;;8.05;;
21517;SDS011;61765;45.794;24.150;2023-01-15T13:15:11;15.60;;;9.80;;
21517;SDS011;61765;45.794;24.150;2023-01-15T13:23:26;16.60;;;9.48;;
21517;SDS011;61765;45.794;24.150;2023-01-15T13:31:50;18.75;;;10.27;;
21517;SDS011;61765;45.794;24.150;2023-01-15T13:40:06;18.40;;;10.85;;
21517;SDS011;61765;45.794;24.150;2023-01-15T13:48:20;19.60;;;11.18;;
21517;SDS011;61765;45.794;24.150;2023-01-15T13:56:35;19.55;;;10.75;;
21517;SDS011;61765;45.794;24.150;2023-01-15T14:04:42;18.42;;;10.90;;
21517;SDS011;61765;45.794;24.150;2023-01-15T14:12:52;22.00;;;11.80;;
21517;SDS011;61765;45.794;24.150;2023-01-15T14:21:16;18.13;;;10.43;;
21517;SDS011;61765;45.794;24.150;2023-01-15T14:38:18;21.13;;;10.93;;
21517;SDS011;61765;45.794;24.150;2023-01-15T14:46:29;21.48;;;12.07;;
21517;SDS011;61765;45.794;24.150;2023-01-15T14:54:42;24.65;;;13.77;;
21517;SDS011;61765;45.794;24.150;2023-01-15T15:02:51;23.33;;;12.77;;
21517;SDS011;61765;45.794;24.150;2023-01-15T15:10:57;25.95;;;14.30;;
21517;SDS011;61765;45.794;24.150;2023-01-15T15:19:20;26.40;;;14.38;;
21517;SDS011;61765;45.794;24.150;2023-01-15T15:27:31;26.90;;;15.02;;
21517;SDS011;61765;45.794;24.150;2023-01-15T15:35:40;28.50;;;15.75;;
21517;SDS011;61765;45.794;24.150;2023-01-15T15:43:53;26.25;;;14.40;;
21517;SDS011;61765;45.794;24.150;2023-01-15T15:52:20;31.33;;;16.30;;
21517;SDS011;61765;45.794;24.150;2023-01-15T16:00:29;27.25;;;15.05;;
21517;SDS011;61765;45.794;24.150;2023-01-15T16:08:41;28.95;;;14.93;;
21517;SDS011;61765;45.794;24.150;2023-01-15T16:16:59;30.25;;;15.55;;
21517;SDS011;61765;45.794;24.150;2023-01-15T16:25:18;28.42;;;15.38;;
21517;SDS011;61765;45.794;24.150;2023-01-15T16:33:25;31.00;;;16.92;;
21517;SDS011;61765;45.794;24.150;2023-01-15T16:41:38;31.58;;;15.75;;
21517;SDS011;61765;45.794;24.150;2023-01-15T16:49:45;27.95;;;15.85;;
21517;SDS011;61765;45.794;24.150;2023-01-15T16:57:56;34.88;;;17.50;;
21517;SDS011;61765;45.794;24.150;2023-01-15T17:06:23;40.05;;;20.90;;
21517;SDS011;61765;45.794;24.150;2023-01-15T17:14:34;47.17;;;23.20;;
21517;SDS011;61765;45.794;24.150;2023-01-15T17:22:40;38.67;;;20.83;;
21517;SDS011;61765;45.794;24.150;2023-01-15T17:30:50;39.33;;;20.05;;
21517;SDS011;61765;45.794;24.150;2023-01-15T17:38:56;47.40;;;25.48;;
21517;SDS011;61765;45.794;24.150;2023-01-15T17:47:05;44.20;;;23.67;;
21517;SDS011;61765;45.794;24.150;2023-01-15T17:55:15;40.75;;;22.17;;
21517;SDS011;61765;45.794;24.150;2023-01-15T18:03:37;48.05;;;24.15;;
21517;SDS011;61765;45.794;24.150;2023-01-15T18:11:59;44.45;;;23.05;;
21517;SDS011;61765;45.794;24.150;2023-01-15T18:20:07;41.55;;;21.50;;
21517;SDS011;61765;45.794;24.150;2023-01-15T18:28:15;35.55;;;19.05;;
21517;SDS011;61765;45.794;24.150;2023-01-15T18:36:23;28.42;;;15.70;;
21517;SDS011;61765;45.794;24.150;2023-01-15T18:44:29;34.03;;;18.70;;
21517;SDS011;61765;45.794;24.150;2023-01-15T18:52:49;34.03;;;19.23;;
21517;SDS011;61765;45.794;24.150;2023-01-15T19:00:56;38.30;;;19.75;;
21517;SDS011;61765;45.794;24.150;2023-01-15T19:09:05;46.60;;;21.70;;
21517;SDS011;61765;45.794;24.150;2023-01-15T19:17:16;45.75;;;21.77;;
21517;SDS011;61765;45.794;24.150;2023-01-15T19:25:39;71.45;;;35.92;;
21517;SDS011;61765;45.794;24.150;2023-01-15T19:33:45;58.38;;;32.42;;
21517;SDS011;61765;45.794;24.150;2023-01-15T19:41:53;43.75;;;23.95;;
21517;SDS011;61765;45.794;24.150;2023-01-15T19:50:11;55.78;;;29.15;;
21517;SDS011;61765;45.794;24.150;2023-01-15T19:58:26;51.92;;;28.17;;
21517;SDS011;61765;45.794;24.150;2023-01-15T20:06:31;50.00;;;26.83;;
21517;SDS011;61765;45.794;24.150;2023-01-15T20:14:40;48.80;;;26.15;;
21517;SDS011;61765;45.794;24.150;2023-01-15T20:22:48;48.72;;;24.90;;
21517;SDS011;61765;45.794;24.150;2023-01-15T20:30:56;43.72;;;24.13;;
21517;SDS011;61765;45.794;24.150;2023-01-15T20:39:02;47.50;;;25.48;;
21517;SDS011;61765;45.794;24.150;2023-01-15T20:47:10;48.03;;;26.30;;
21517;SDS011;61765;45.794;24.150;2023-01-15T20:55:28;47.35;;;25.90;;
21517;SDS011;61765;45.794;24.150;2023-01-15T21:03:58;61.55;;;33.50;;
21517;SDS011;61765;45.794;24.150;2023-01-15T21:12:10;76.55;;;38.33;;
21517;SDS011;61765;45.794;24.150;2023-01-15T21:20:20;67.07;;;37.28;;
21517;SDS011;61765;45.794;24.150;2023-01-15T21:28:37;66.22;;;35.40;;
21517;SDS011;61765;45.794;24.150;2023-01-15T21:36:46;62.63;;;33.13;;
21517;SDS011;61765;45.794;24.150;2023-01-15T21:44:52;59.25;;;30.90;;
21517;SDS011;61765;45.794;24.150;2023-01-15T21:53:01;60.47;;;32.53;;
21517;SDS011;61765;45.794;24.150;2023-01-15T22:01:07;59.22;;;30.85;;
21517;SDS011;61765;45.794;24.150;2023-01-15T22:09:15;62.17;;;34.67;;
21517;SDS011;61765;45.794;24.150;2023-01-15T22:17:21;54.10;;;30.63;;
21517;SDS011;61765;45.794;24.150;2023-01-15T22:25:29;64.85;;;35.83;;
21517;SDS011;61765;45.794;24.150;2023-01-15T22:33:35;77.82;;;40.83;;
21517;SDS011;61765;45.794;24.150;2023-01-15T22:41:43;77.65;;;41.97;;
21517;SDS011;61765;45.794;24.150;2023-01-15T22:50:02;81.93;;;41.83;;
21517;SDS011;61765;45.794;24.150;2023-01-15T22:58:10;78.63;;;40.88;;
21517;SDS011;61765;45.794;24.150;2023-01-15T23:06:17;65.22;;;34.33;;
21517;SDS011;61765;45.794;24.150;2023-01-15T23:14:30;50.47;;;27.48;;
21517;SDS011;61765;45.794;24.150;2023-01-15T23:22:36;47.63;;;26.25;;
21517;SDS011;61765;45.794;24.150;2023-01-15T23:30:44;54.85;;;27.60;;
21517;SDS011;61765;45.794;24.150;2023-01-15T23:38:50;52.92;;;28.23;;
21517;SDS011;61765;45.794;24.150;2023-01-15T23:46:58;54.85;;;29.38;;
21517;SDS011;61765;45.794;24.150;2023-01-15T23:55:04;51.78;;;28.50;;
